createdAt,value
2022-08-29T00:00:19.064Z,27.4
2022-08-29T00:06:06.562Z,27.4
2022-08-29T00:11:43.432Z,27.4
2022-08-29T00:17:31.124Z,27.4
2022-08-29T00:22:53.662Z,27.4
2022-08-29T00:28:38.995Z,27.5
2022-08-29T00:34:00.669Z,27.4
2022-08-29T00:39:43.352Z,27.4
2022-08-29T00:45:07.753Z,27.4
2022-08-29T00:50:29.839Z,27.5
2022-08-29T00:55:34.984Z,27.4
2022-08-29T01:00:54.649Z,27.4
2022-08-29T01:06:42.049Z,27.4
2022-08-29T01:12:33.423Z,27.4
2022-08-29T01:18:10.057Z,27.4
2022-08-29T01:23:15.905Z,27.4
2022-08-29T01:28:52.603Z,27.4
2022-08-29T01:35:05.153Z,27.4
2022-08-29T01:40:42.569Z,27.4
2022-08-29T01:46:22.427Z,27.4
2022-08-29T01:52:02.575Z,27.4
2022-08-29T01:57:43.633Z,27.4
2022-08-29T02:03:23.367Z,27.4
2022-08-29T02:08:44.572Z,27.4
2022-08-29T02:14:21.567Z,27.4
2022-08-29T02:19:42.365Z,27.4
2022-08-29T02:25:47.649Z,27.4
2022-08-29T02:31:13.972Z,27.4
2022-08-29T02:36:44.480Z,27.4
2022-08-29T02:42:20.631Z,27.4
2022-08-29T02:47:42.652Z,27.4
2022-08-29T02:53:38.051Z,27.3
2022-08-29T02:58:47.136Z,27.3
2022-08-29T03:04:08.519Z,27.3
2022-08-29T03:09:51.923Z,27.3
2022-08-29T03:15:14.255Z,27.3
2022-08-29T03:20:52.195Z,27.3
2022-08-29T03:26:28.220Z,27.2
2022-08-29T03:32:15.047Z,27.1
2022-08-29T03:37:25.824Z,27
2022-08-29T03:42:47.867Z,26.9
2022-08-29T03:48:26.669Z,26.9
2022-08-29T03:54:05.461Z,26.8
2022-08-29T03:59:43.090Z,26.8
2022-08-29T04:05:24.237Z,26.7
2022-08-29T04:11:01.185Z,26.7
2022-08-29T04:16:39.295Z,26.6
2022-08-29T04:22:25.769Z,26.6
2022-08-29T04:28:32.671Z,26.6
2022-08-29T04:34:19.458Z,26.5
2022-08-29T04:39:56.690Z,26.5
2022-08-29T04:45:33.799Z,26.4
2022-08-29T04:51:19.104Z,26.4
2022-08-29T04:57:03.520Z,26.4
2022-08-29T05:02:31.640Z,26.4
2022-08-29T05:07:56.091Z,26.2
2022-08-29T05:13:42.576Z,26.1
2022-08-29T05:19:20.175Z,26.1
2022-08-29T05:25:07.327Z,26
2022-08-29T05:30:51.609Z,25.9
2022-08-29T05:36:37.617Z,26
2022-08-29T05:42:16.620Z,26.3
2022-08-29T05:48:05.157Z,26.3
2022-08-29T05:53:43.545Z,26.4
2022-08-29T05:59:21.579Z,26.4
2022-08-29T06:05:04.498Z,26.5
2022-08-29T06:10:41.893Z,26.6
2022-08-29T06:16:22.941Z,26.6
2022-08-29T06:22:09.839Z,26.7
2022-08-29T06:28:12.524Z,26.7
2022-08-29T06:34:02.352Z,26.7
2022-08-29T06:39:40.132Z,26.7
2022-08-29T06:45:20.280Z,26.8
2022-08-29T06:51:03.245Z,27.7
2022-08-29T06:57:18.957Z,49.1
2022-08-29T07:03:13.679Z,47.6
2022-08-29T07:09:11.951Z,46.6
2022-08-29T07:14:57.689Z,51
2022-08-29T07:20:51.160Z,48.7
2022-08-29T07:26:32.854Z,46.4
2022-08-29T07:32:23.943Z,45.9
2022-08-29T07:38:23.878Z,45.5
2022-08-29T07:44:09.284Z,45.1
2022-08-29T07:49:58.175Z,42.4
2022-08-29T07:55:42.873Z,49.6
2022-08-29T08:01:28.843Z,47.3
2022-08-29T08:07:00.242Z,53.8
2022-08-29T08:12:57.536Z,50
2022-08-29T08:18:35.517Z,50.1
2022-08-29T08:24:25.427Z,52.8
2022-08-29T08:30:04.142Z,53.6
2022-08-29T08:35:30.596Z,50.6
2022-08-29T08:41:26.509Z,50.8
2022-08-29T08:47:09.609Z,53.3
2022-08-29T08:52:36.018Z,50.6
2022-08-29T08:57:56.835Z,52.5
2022-08-29T09:03:35.276Z,48.4
2022-08-29T09:09:15.331Z,44.6
2022-08-29T09:14:40.880Z,42
2022-08-29T09:20:40.923Z,40.1
2022-08-29T09:26:53.221Z,38.8
2022-08-29T09:32:36.670Z,37.8
2022-08-29T09:38:38.712Z,36.8
2022-08-29T09:44:23.484Z,36.1
2022-08-29T09:50:01.470Z,35.4
2022-08-29T09:55:48.976Z,34.9
2022-08-29T10:01:36.521Z,34.4
2022-08-29T10:07:25.626Z,33.9
2022-08-29T10:12:50.357Z,33.6
2022-08-29T10:19:03.234Z,33.2
2022-08-29T10:24:43.569Z,32.9
2022-08-29T10:30:21.505Z,32.6
2022-08-29T10:35:53.798Z,60.2
2022-08-29T10:41:25.715Z,52.6
2022-08-29T10:47:08.274Z,55.6
2022-08-29T10:53:03.557Z,57.2
2022-08-29T10:58:46.284Z,56.3
2022-08-29T11:04:24.865Z,56.4
2022-08-29T11:10:04.625Z,51.7
2022-08-29T11:15:44.245Z,47.5
2022-08-29T11:21:27.423Z,43.9
2022-08-29T11:27:12.947Z,41.4
2022-08-29T11:32:53.264Z,40
2022-08-29T11:38:30.039Z,38.9
2022-08-29T11:45:35.775Z,37.9
2022-08-29T11:51:23.167Z,37.1
2022-08-29T11:57:01.393Z,36.4
2022-08-29T12:02:48.904Z,35.8
2022-08-29T12:09:12.730Z,35.4
2022-08-29T12:14:38.829Z,54.6
2022-08-29T12:20:42.209Z,52.7
2022-08-29T12:26:56.219Z,49.1
2022-08-29T12:33:23.485Z,45.4
2022-08-29T12:39:19.412Z,41.9
2022-08-29T12:44:57.411Z,39.8
2022-08-29T12:50:20.610Z,38.3
2022-08-29T12:55:46.636Z,37.2
2022-08-29T13:01:14.310Z,36.4
2022-08-29T13:06:56.887Z,35.7
2022-08-29T13:12:41.786Z,35.1
2022-08-29T13:18:24.470Z,34.7
2022-08-29T13:24:33.252Z,34.1
2022-08-29T13:30:04.775Z,33.8
2022-08-29T13:35:53.674Z,33.4
2022-08-29T13:41:42.412Z,33.1
2022-08-29T13:47:22.334Z,32.9
2022-08-29T13:53:04.850Z,32.6
2022-08-29T13:58:41.550Z,32.3
2022-08-29T14:05:44.547Z,32
2022-08-29T14:11:27.827Z,31.9
2022-08-29T14:17:10.906Z,31.7
2022-08-29T14:22:40.329Z,31.4
2022-08-29T14:28:25.523Z,31.2
2022-08-29T14:34:26.011Z,31
2022-08-29T14:40:23.646Z,31
2022-08-29T14:46:05.889Z,30.9
2022-08-29T14:51:43.591Z,30.9
2022-08-29T14:58:07.496Z,31
2022-08-29T15:03:46.037Z,31.1
2022-08-29T15:09:21.730Z,31.1
2022-08-29T15:14:59.349Z,31.1
2022-08-29T15:22:12.485Z,31.2
2022-08-29T15:27:58.989Z,31.2
2022-08-29T15:33:38.798Z,31.2
2022-08-29T15:39:17.267Z,31.3
2022-08-29T15:45:09.150Z,31.2
2022-08-29T15:50:55.006Z,31.1
2022-08-29T15:56:33.278Z,31.1
2022-08-29T16:02:50.574Z,31.1
2022-08-29T16:08:33.173Z,31
